createdAt,value
2023-05-16T00:00:58.398Z,98379.00
2023-05-16T00:03:30.901Z,98373.00
2023-05-16T00:06:02.558Z,98379.00
2023-05-16T00:08:33.473Z,98376.00
2023-05-16T00:11:04.722Z,98378.00
2023-05-16T00:13:35.654Z,98374.00
2023-05-16T00:16:06.958Z,98370.00
2023-05-16T00:18:38.781Z,98378.00
2023-05-16T00:21:09.717Z,98373.00
2023-05-16T00:23:40.643Z,98369.00
2023-05-16T00:26:11.594Z,98378.00
2023-05-16T00:28:42.514Z,98375.00
2023-05-16T00:31:13.480Z,98376.00
2023-05-16T00:33:44.341Z,98379.00
2023-05-16T00:36:15.255Z,98374.00
2023-05-16T00:38:46.225Z,98366.00
2023-05-16T00:41:18.002Z,98382.00
2023-05-16T00:43:48.884Z,98375.00
2023-05-16T00:46:19.841Z,98370.00
2023-05-16T00:48:50.977Z,98372.00
2023-05-16T00:51:22.047Z,98374.00
2023-05-16T00:53:53.896Z,98371.00
2023-05-16T00:56:24.966Z,98369.00
2023-05-16T00:58:56.209Z,98378.00
2023-05-16T01:01:28.657Z,98372.00
2023-05-16T01:04:01.529Z,98372.00
2023-05-16T01:06:34.297Z,98371.00
2023-05-16T01:09:06.496Z,98362.00
2023-05-16T01:12:24.071Z,98370.00
2023-05-16T01:15:17.919Z,98366.00
2023-05-16T01:17:57.909Z,98367.00
2023-05-16T01:20:49.661Z,98366.00
2023-05-16T01:23:53.822Z,98362.00
2023-05-16T01:26:30.111Z,98366.00
2023-05-16T01:29:02.388Z,98378.00
2023-05-16T01:31:33.439Z,98370.00
2023-05-16T01:34:04.412Z,98380.00
2023-05-16T01:37:16.469Z,98373.00
2023-05-16T01:40:10.278Z,98371.00
2023-05-16T01:42:46.133Z,98371.00
2023-05-16T01:45:58.340Z,98366.00
2023-05-16T01:48:39.829Z,98373.00
2023-05-16T01:51:12.853Z,98376.00
2023-05-16T01:53:45.492Z,98373.00
2023-05-16T01:56:18.492Z,98376.00
2023-05-16T01:58:52.148Z,98379.00
2023-05-16T02:01:23.321Z,98373.00
2023-05-16T02:03:54.335Z,98364.00
2023-05-16T02:06:26.264Z,98373.00
2023-05-16T02:08:57.169Z,98364.00
2023-05-16T02:11:28.035Z,98370.00
2023-05-16T02:13:58.990Z,98370.00
2023-05-16T02:16:31.625Z,98368.00
2023-05-16T02:19:02.689Z,98368.00
2023-05-16T02:21:50.701Z,98367.00
2023-05-16T02:24:21.798Z,98379.00
2023-05-16T02:26:52.722Z,98402.00
2023-05-16T02:29:23.650Z,98388.00
2023-05-16T02:31:54.558Z,98375.00
2023-05-16T02:34:25.518Z,98384.00
2023-05-16T02:36:56.548Z,98382.00
2023-05-16T02:39:27.604Z,98387.00
2023-05-16T02:41:58.519Z,98376.00
2023-05-16T02:44:29.533Z,98371.00
2023-05-16T02:47:00.546Z,98382.00
2023-05-16T02:49:31.434Z,98376.00
2023-05-16T02:52:02.347Z,98376.00
2023-05-16T02:54:34.126Z,98390.00
2023-05-16T02:57:05.534Z,98387.00
2023-05-16T02:59:36.481Z,98381.00
2023-05-16T03:02:07.589Z,98398.00
2023-05-16T03:04:38.701Z,98388.00
2023-05-16T03:07:09.594Z,98385.00
2023-05-16T03:09:40.548Z,98379.00
2023-05-16T03:12:11.481Z,98383.00
2023-05-16T03:14:42.433Z,98373.00
2023-05-16T03:17:13.303Z,98378.00
2023-05-16T03:19:44.202Z,98376.00
2023-05-16T03:22:15.298Z,98381.00
2023-05-16T03:24:47.258Z,98386.00
2023-05-16T03:27:18.244Z,98385.00
2023-05-16T03:29:49.144Z,98385.00
2023-05-16T03:32:20.018Z,98393.00
2023-05-16T03:34:50.970Z,98382.00
2023-05-16T03:37:22.293Z,98380.00
2023-05-16T03:39:53.199Z,98387.00
2023-05-16T03:42:24.173Z,98385.00
2023-05-16T03:44:55.016Z,98388.00
2023-05-16T03:47:26.120Z,98390.00
2023-05-16T03:49:57.852Z,98385.00
2023-05-16T03:52:28.768Z,98394.00
2023-05-16T03:54:59.644Z,98391.00
2023-05-16T03:57:32.940Z,98393.00
2023-05-16T04:00:07.781Z,98392.00
2023-05-16T04:02:43.995Z,98387.00
2023-05-16T04:05:15.164Z,98381.00
2023-05-16T04:07:46.321Z,98393.00
2023-05-16T04:10:17.349Z,98396.00
2023-05-16T04:12:48.983Z,98402.00
2023-05-16T04:15:20.043Z,98403.00
2023-05-16T04:17:50.953Z,98410.00
2023-05-16T04:20:21.901Z,98409.00
2023-05-16T04:22:52.778Z,98417.00
2023-05-16T04:25:23.730Z,98400.00
2023-05-16T04:27:54.653Z,98408.00
2023-05-16T04:30:25.916Z,98426.00
2023-05-16T04:32:59.470Z,98414.00
2023-05-16T04:35:30.586Z,98422.00
2023-05-16T04:38:01.998Z,98423.00
2023-05-16T04:40:33.188Z,98418.00
2023-05-16T04:43:04.070Z,98411.00
2023-05-16T04:45:37.491Z,98419.00
2023-05-16T04:48:08.909Z,98415.00
2023-05-16T04:50:39.819Z,98423.00
2023-05-16T04:53:10.933Z,98421.00
2023-05-16T04:55:41.969Z,98414.00
2023-05-16T04:58:13.137Z,98419.00
2023-05-16T05:00:44.072Z,98429.00
2023-05-16T05:03:15.044Z,98423.00
2023-05-16T05:05:46.480Z,98437.00
2023-05-16T05:08:18.907Z,98433.00
2023-05-16T05:10:50.007Z,98435.00
2023-05-16T05:13:20.910Z,98430.00
2023-05-16T05:15:52.471Z,98438.00
2023-05-16T05:18:23.497Z,98443.00
2023-05-16T05:20:54.463Z,98425.00
2023-05-16T05:23:25.952Z,98431.00
2023-05-16T05:25:56.950Z,98433.00
2023-05-16T05:28:28.125Z,98456.00
2023-05-16T05:30:59.596Z,98432.00
2023-05-16T05:33:30.980Z,98432.00
2023-05-16T05:36:03.992Z,98437.00
2023-05-16T05:38:35.378Z,98441.00
2023-05-16T05:41:07.178Z,98439.00
2023-05-16T05:43:38.518Z,98443.00
2023-05-16T05:46:09.829Z,98446.00
2023-05-16T05:48:40.872Z,98447.00
2023-05-16T05:51:13.967Z,98445.00
2023-05-16T05:53:45.401Z,98448.00
2023-05-16T05:56:16.625Z,98451.00
2023-05-16T05:58:47.642Z,98459.00
2023-05-16T06:01:18.721Z,98464.00
2023-05-16T06:03:49.594Z,98484.00
2023-05-16T06:06:20.556Z,98466.00
2023-05-16T06:08:51.487Z,98461.00
2023-05-16T06:11:22.483Z,98465.00
2023-05-16T06:13:53.497Z,98462.00
2023-05-16T06:16:26.093Z,98464.00
2023-05-16T06:18:57.115Z,98461.00
2023-05-16T06:21:28.170Z,98469.00
2023-05-16T06:23:59.273Z,98459.00
2023-05-16T06:26:30.195Z,98463.00
2023-05-16T06:29:01.273Z,98474.00
2023-05-16T06:31:32.356Z,98475.00
2023-05-16T06:34:03.519Z,98477.00
2023-05-16T06:36:34.457Z,98477.00
2023-05-16T06:39:05.498Z,98477.00
2023-05-16T06:41:36.657Z,98481.00
2023-05-16T06:44:07.584Z,98478.00
2023-05-16T06:46:38.573Z,98473.00
2023-05-16T06:49:09.634Z,98470.00
2023-05-16T06:51:40.625Z,98469.00
2023-05-16T06:54:11.586Z,98483.00
2023-05-16T06:56:42.808Z,98476.00
2023-05-16T06:59:13.753Z,98485.00
2023-05-16T07:01:44.887Z,98477.00
2023-05-16T07:04:16.333Z,98482.00
2023-05-16T07:06:47.348Z,98485.00
2023-05-16T07:09:20.420Z,98485.00
2023-05-16T07:11:51.342Z,98485.00
2023-05-16T07:14:22.311Z,98491.00
2023-05-16T07:16:53.288Z,98488.00
2023-05-16T07:19:24.452Z,98490.00
2023-05-16T07:21:55.421Z,98496.00
2023-05-16T07:24:26.425Z,98495.00
2023-05-16T07:26:57.392Z,98494.00
2023-05-16T07:29:28.480Z,98490.00
2023-05-16T07:31:59.485Z,98487.00
2023-05-16T07:34:30.604Z,98498.00
2023-05-16T07:37:03.926Z,98510.00
2023-05-16T07:39:34.897Z,98508.00
2023-05-16T07:42:08.437Z,98506.00
2023-05-16T07:44:39.403Z,98509.00
2023-05-16T07:47:10.332Z,98505.00
2023-05-16T07:49:41.852Z,98516.00
2023-05-16T07:52:12.845Z,98512.00
2023-05-16T07:54:43.807Z,98520.00
2023-05-16T07:57:15.955Z,98511.00
2023-05-16T07:59:47.187Z,98511.00
2023-05-16T08:02:18.378Z,98524.00
2023-05-16T08:04:50.334Z,98510.00
2023-05-16T08:07:21.430Z,98516.00
2023-05-16T08:09:52.383Z,98519.00
2023-05-16T08:12:24.500Z,98528.00
2023-05-16T08:14:55.488Z,98527.00
2023-05-16T08:17:27.105Z,98522.00
2023-05-16T08:19:59.370Z,98529.00
2023-05-16T08:22:30.433Z,98530.00
2023-05-16T08:25:01.517Z,98538.00
2023-05-16T08:27:32.498Z,98535.00
2023-05-16T08:30:03.892Z,98539.00
2023-05-16T08:32:34.915Z,98538.00
2023-05-16T08:35:06.625Z,98540.00
2023-05-16T08:37:37.554Z,98538.00
2023-05-16T08:40:11.134Z,98578.00
2023-05-16T08:42:45.414Z,98551.00
2023-05-16T08:45:16.528Z,98548.00
2023-05-16T08:47:51.646Z,98548.00
2023-05-16T08:50:24.952Z,98576.00
2023-05-16T08:52:56.254Z,98555.00
2023-05-16T08:55:27.617Z,98559.00
2023-05-16T08:58:00.712Z,98561.00
2023-05-16T09:00:32.128Z,98565.00
2023-05-16T09:03:03.481Z,98593.00
2023-05-16T09:05:34.876Z,98565.00
2023-05-16T09:08:06.632Z,98575.00
2023-05-16T09:10:37.631Z,98574.00
2023-05-16T09:13:08.600Z,98571.00
2023-05-16T09:15:39.518Z,98569.00
2023-05-16T09:18:14.275Z,98572.00
2023-05-16T09:20:50.153Z,98568.00
2023-05-16T09:23:25.614Z,98564.00
2023-05-16T09:25:58.339Z,98560.00
2023-05-16T09:28:29.324Z,98566.00
2023-05-16T09:31:00.506Z,98562.00
2023-05-16T09:33:31.821Z,98567.00
2023-05-16T09:36:03.582Z,98570.00
2023-05-16T09:38:34.562Z,98561.00
2023-05-16T09:41:05.548Z,98566.00
2023-05-16T09:43:41.816Z,98559.00
2023-05-16T09:46:15.539Z,98561.00
2023-05-16T09:48:51.884Z,98553.00
2023-05-16T09:51:23.655Z,98548.00
2023-05-16T09:53:54.986Z,98553.00
2023-05-16T09:56:25.926Z,98552.00
2023-05-16T09:58:57.039Z,98547.00
2023-05-16T10:01:28.145Z,98554.00
2023-05-16T10:03:59.168Z,98552.00
2023-05-16T10:06:30.216Z,98557.00
2023-05-16T10:09:03.138Z,98566.00
2023-05-16T10:11:34.366Z,98558.00
2023-05-16T10:14:07.946Z,98559.00
2023-05-16T10:16:44.300Z,98549.00
2023-05-16T10:19:17.284Z,98544.00
2023-05-16T10:21:55.301Z,98540.00
2023-05-16T10:24:45.151Z,98545.00
2023-05-16T10:27:19.090Z,98547.00
2023-05-16T10:29:54.804Z,98551.00
2023-05-16T10:32:27.987Z,98566.00
2023-05-16T10:35:01.270Z,98550.00
2023-05-16T10:37:33.699Z,98550.00
2023-05-16T10:40:06.980Z,98548.00
2023-05-16T10:42:37.998Z,98551.00
2023-05-16T10:45:21.665Z,98551.00
2023-05-16T10:47:59.057Z,98559.00
2023-05-16T10:50:38.141Z,98549.00
2023-05-16T10:53:13.282Z,98552.00
2023-05-16T10:55:59.530Z,98553.00
2023-05-16T10:58:43.791Z,98560.00
2023-05-16T11:01:35.451Z,98555.00
2023-05-16T11:04:11.591Z,98558.00
2023-05-16T11:06:42.509Z,98561.00
2023-05-16T11:09:16.140Z,98565.00
2023-05-16T11:12:03.429Z,98575.00
2023-05-16T11:14:34.420Z,98571.00
2023-05-16T11:17:39.208Z,98576.00
2023-05-16T11:20:34.330Z,98582.00
2023-05-16T11:23:17.581Z,98593.00
2023-05-16T11:25:56.300Z,98584.00
2023-05-16T11:28:28.149Z,98592.00
2023-05-16T11:31:00.322Z,98597.00
2023-05-16T11:33:35.627Z,98624.00
2023-05-16T11:36:16.357Z,98603.00
2023-05-16T11:38:47.857Z,98603.00
2023-05-16T11:41:19.121Z,98599.00
2023-05-16T11:43:50.088Z,98599.00
2023-05-16T11:46:21.078Z,98603.00
2023-05-16T11:48:52.305Z,98601.00
2023-05-16T11:51:23.358Z,98601.00
2023-05-16T11:53:54.397Z,98602.00
2023-05-16T11:56:26.061Z,98605.00
2023-05-16T11:58:57.788Z,98612.00
2023-05-16T12:01:39.756Z,98632.00
2023-05-16T12:04:15.788Z,98615.00
2023-05-16T12:07:00.696Z,98613.00
2023-05-16T12:09:31.840Z,98616.00
2023-05-16T12:12:06.874Z,98610.00
2023-05-16T12:14:38.005Z,98617.00
2023-05-16T12:17:09.071Z,98622.00
2023-05-16T12:19:40.223Z,98617.00
2023-05-16T12:22:21.157Z,98619.00
2023-05-16T12:24:52.356Z,98615.00
2023-05-16T12:27:24.997Z,98615.00
2023-05-16T12:29:58.893Z,98648.00
2023-05-16T12:32:30.180Z,98617.00
2023-05-16T12:35:02.651Z,98619.00
2023-05-16T12:37:33.602Z,98633.00
2023-05-16T12:40:06.278Z,98630.00
2023-05-16T12:42:37.207Z,98632.00
2023-05-16T12:45:17.109Z,98637.00
2023-05-16T12:47:48.121Z,98628.00
2023-05-16T12:50:19.288Z,98628.00
2023-05-16T12:52:52.098Z,98624.00
2023-05-16T12:55:23.681Z,98630.00
2023-05-16T12:57:57.061Z,98629.00
2023-05-16T13:00:28.421Z,98626.00
2023-05-16T13:02:59.655Z,98635.00
2023-05-16T13:05:30.730Z,98642.00
2023-05-16T13:08:02.716Z,98639.00
2023-05-16T13:10:33.685Z,98644.00
2023-05-16T13:13:04.740Z,98648.00
2023-05-16T13:15:35.957Z,98668.00
2023-05-16T13:18:07.012Z,98649.00
2023-05-16T13:20:38.987Z,98648.00
2023-05-16T13:23:10.038Z,98656.00
2023-05-16T13:25:41.059Z,98656.00
2023-05-16T13:28:12.039Z,98667.00
2023-05-16T13:30:43.128Z,98658.00
2023-05-16T13:33:14.325Z,98658.00
2023-05-16T13:35:45.365Z,98665.00
2023-05-16T13:38:16.472Z,98661.00
2023-05-16T13:40:47.478Z,98659.00
2023-05-16T13:43:18.409Z,98664.00
2023-05-16T13:45:49.476Z,98669.00
2023-05-16T13:48:20.596Z,98667.00
2023-05-16T13:50:53.341Z,98659.00
2023-05-16T13:53:24.514Z,98664.00
2023-05-16T13:55:55.492Z,98676.00
2023-05-16T13:58:27.258Z,98669.00
2023-05-16T14:00:58.174Z,98668.00
2023-05-16T14:03:29.188Z,98682.00
2023-05-16T14:06:00.258Z,98672.00
2023-05-16T14:08:31.221Z,98677.00
2023-05-16T14:11:02.649Z,98675.00
2023-05-16T14:13:33.643Z,98676.00
2023-05-16T14:16:04.975Z,98675.00
2023-05-16T14:18:36.010Z,98680.00
2023-05-16T14:21:07.108Z,98674.00
2023-05-16T14:23:38.183Z,98664.00
2023-05-16T14:26:09.232Z,98674.00
2023-05-16T14:28:40.226Z,98669.00
2023-05-16T14:31:11.594Z,98674.00
2023-05-16T14:33:43.943Z,98667.00
2023-05-16T14:36:14.957Z,98670.00
2023-05-16T14:38:45.885Z,98674.00
2023-05-16T14:41:17.229Z,98668.00
2023-05-16T14:43:48.210Z,98676.00
2023-05-16T14:46:19.255Z,98673.00
2023-05-16T14:48:50.194Z,98685.00
2023-05-16T14:51:21.199Z,98682.00
2023-05-16T14:53:52.241Z,98677.00
2023-05-16T14:56:23.285Z,98684.00
2023-05-16T14:58:54.462Z,98679.00
2023-05-16T15:01:25.462Z,98683.00
2023-05-16T15:03:56.903Z,98694.00
2023-05-16T15:06:27.906Z,98695.00
2023-05-16T15:08:58.819Z,98691.00
2023-05-16T15:11:29.853Z,98691.00
2023-05-16T15:14:01.721Z,98687.00
2023-05-16T15:16:32.869Z,98690.00
2023-05-16T15:19:04.208Z,98703.00
2023-05-16T15:21:35.300Z,98692.00
2023-05-16T15:24:06.861Z,98699.00
2023-05-16T15:26:41.169Z,98699.00
2023-05-16T15:29:12.306Z,98693.00
2023-05-16T15:31:43.402Z,98693.00
2023-05-16T15:34:14.431Z,98694.00
2023-05-16T15:36:45.370Z,98686.00
2023-05-16T15:39:16.347Z,98693.00
2023-05-16T15:42:05.745Z,98699.00
2023-05-16T15:44:39.259Z,98692.00
2023-05-16T15:47:10.782Z,98691.00
2023-05-16T15:49:41.744Z,98691.00
2023-05-16T15:52:12.822Z,98684.00
2023-05-16T15:54:43.785Z,98712.00
2023-05-16T15:57:14.750Z,98691.00
2023-05-16T15:59:45.893Z,98696.00
2023-05-16T16:02:17.064Z,98696.00
2023-05-16T16:04:49.553Z,98706.00
2023-05-16T16:07:20.677Z,98705.00
2023-05-16T16:09:51.651Z,98694.00
2023-05-16T16:12:22.723Z,98698.00
2023-05-16T16:14:53.717Z,98703.00
2023-05-16T16:17:24.671Z,98702.00
2023-05-16T16:19:55.853Z,98705.00
2023-05-16T16:22:26.896Z,98706.00
2023-05-16T16:24:57.887Z,98707.00
2023-05-16T16:27:28.824Z,98705.00
2023-05-16T16:29:59.844Z,98717.00
2023-05-16T16:32:30.927Z,98718.00
2023-05-16T16:35:05.065Z,98722.00
2023-05-16T16:37:36.267Z,98717.00
2023-05-16T16:40:10.524Z,98707.00
2023-05-16T16:42:41.524Z,98715.00
2023-05-16T16:45:12.643Z,98721.00
2023-05-16T16:47:43.790Z,98726.00
2023-05-16T16:50:14.784Z,98720.00
2023-05-16T16:52:45.789Z,98723.00
2023-05-16T16:55:17.049Z,98727.00
2023-05-16T16:57:47.974Z,98727.00
2023-05-16T17:00:19.804Z,98727.00
2023-05-16T17:02:50.935Z,98739.00
2023-05-16T17:05:22.161Z,98742.00
2023-05-16T17:07:53.605Z,98749.00
2023-05-16T17:10:24.816Z,98744.00
2023-05-16T17:12:55.954Z,98753.00
2023-05-16T17:15:27.184Z,98745.00
2023-05-16T17:17:58.378Z,98749.00
2023-05-16T17:20:29.369Z,98747.00
2023-05-16T17:23:01.723Z,98749.00
2023-05-16T17:25:32.812Z,98745.00
2023-05-16T17:28:03.940Z,98754.00
2023-05-16T17:30:34.915Z,98748.00
2023-05-16T17:33:06.590Z,98748.00
2023-05-16T17:35:37.752Z,98757.00
2023-05-16T17:38:10.291Z,98756.00
2023-05-16T17:40:41.237Z,98751.00
2023-05-16T17:43:12.204Z,98754.00
2023-05-16T17:45:43.241Z,98770.00
2023-05-16T17:48:17.481Z,98762.00
2023-05-16T17:50:50.070Z,98764.00
2023-05-16T17:53:21.050Z,98762.00
2023-05-16T17:55:52.356Z,98762.00
2023-05-16T17:58:23.684Z,98765.00
2023-05-16T18:00:55.210Z,98763.00
2023-05-16T18:03:26.585Z,98769.00
2023-05-16T18:05:57.551Z,98773.00
2023-05-16T18:08:28.788Z,98772.00
2023-05-16T18:11:00.269Z,98778.00
2023-05-16T18:13:31.306Z,98782.00
2023-05-16T18:16:02.388Z,98787.00
2023-05-16T18:18:33.628Z,98791.00
2023-05-16T18:21:06.210Z,98788.00
2023-05-16T18:23:37.313Z,98800.00
2023-05-16T18:26:09.251Z,98799.00
2023-05-16T18:28:40.258Z,98808.00
2023-05-16T18:31:12.144Z,98811.00
2023-05-16T18:33:43.222Z,98812.00
2023-05-16T18:36:14.222Z,98819.00
2023-05-16T18:38:45.782Z,98824.00
2023-05-16T18:41:17.318Z,98824.00
2023-05-16T18:43:49.383Z,98816.00
2023-05-16T18:46:20.680Z,98822.00
2023-05-16T18:48:51.734Z,98821.00
2023-05-16T18:51:22.704Z,98828.00
2023-05-16T18:53:53.719Z,98832.00
2023-05-16T18:56:24.714Z,98834.00
2023-05-16T18:58:55.758Z,98837.00
2023-05-16T19:01:27.047Z,98844.00
2023-05-16T19:03:58.208Z,98839.00
2023-05-16T19:06:29.477Z,98851.00
2023-05-16T19:09:00.486Z,98841.00
2023-05-16T19:11:31.508Z,98855.00
2023-05-16T19:14:02.481Z,98851.00
2023-05-16T19:16:34.056Z,98860.00
2023-05-16T19:19:05.807Z,98859.00
2023-05-16T19:21:36.995Z,98866.00
2023-05-16T19:24:08.853Z,98868.00
2023-05-16T19:26:40.072Z,98878.00
2023-05-16T19:29:10.998Z,98885.00
2023-05-16T19:31:41.984Z,98880.00
2023-05-16T19:34:13.439Z,98888.00
2023-05-16T19:36:44.506Z,98897.00
2023-05-16T19:39:15.647Z,98898.00
2023-05-16T19:41:51.689Z,98900.00
2023-05-16T19:44:23.700Z,98895.00
2023-05-16T19:46:54.678Z,98911.00
2023-05-16T19:49:26.687Z,98940.00
2023-05-16T19:51:57.873Z,98909.00
2023-05-16T19:54:28.947Z,98917.00
2023-05-16T19:57:02.226Z,98918.00
2023-05-16T19:59:33.377Z,98906.00
2023-05-16T20:02:04.497Z,98912.00
2023-05-16T20:04:35.648Z,98908.00
2023-05-16T20:07:07.449Z,98911.00
2023-05-16T20:09:38.486Z,98918.00
2023-05-16T20:12:09.904Z,98922.00
2023-05-16T20:14:40.994Z,98944.00
2023-05-16T20:17:12.025Z,98919.00
2023-05-16T20:19:44.025Z,98933.00
2023-05-16T20:22:15.100Z,98929.00
2023-05-16T20:24:46.238Z,98932.00
2023-05-16T20:27:17.272Z,98937.00
2023-05-16T20:29:54.725Z,98938.00
2023-05-16T20:32:25.685Z,98943.00
2023-05-16T20:34:56.754Z,98942.00
2023-05-16T20:37:27.729Z,98949.00
2023-05-16T20:39:58.713Z,98946.00
2023-05-16T20:42:29.655Z,98942.00
2023-05-16T20:45:01.670Z,98948.00
2023-05-16T20:47:32.871Z,98949.00
2023-05-16T20:50:04.163Z,98950.00
2023-05-16T20:52:35.340Z,98950.00
2023-05-16T20:55:07.141Z,98958.00
2023-05-16T20:57:38.116Z,98952.00
2023-05-16T21:00:09.735Z,98955.00
2023-05-16T21:02:40.820Z,98960.00
2023-05-16T21:05:24.077Z,98964.00
2023-05-16T21:07:56.436Z,98967.00
2023-05-16T21:10:27.435Z,98966.00
2023-05-16T21:12:58.500Z,98967.00
2023-05-16T21:15:29.751Z,98979.00
2023-05-16T21:18:01.188Z,98973.00
2023-05-16T21:20:32.265Z,98972.00
2023-05-16T21:23:03.604Z,98969.00
2023-05-16T21:25:34.589Z,98976.00
2023-05-16T21:28:05.895Z,98976.00
2023-05-16T21:30:37.007Z,98985.00
2023-05-16T21:33:08.167Z,98981.00
2023-05-16T21:35:39.234Z,98991.00
2023-05-16T21:38:10.152Z,98985.00
2023-05-16T21:40:41.421Z,98990.00
2023-05-16T21:43:12.354Z,98994.00
2023-05-16T21:45:43.403Z,98998.00
2023-05-16T21:48:14.468Z,98997.00
2023-05-16T21:50:45.598Z,98992.00
2023-05-16T21:53:17.665Z,99000.00
2023-05-16T21:55:48.601Z,99001.00
2023-05-16T21:58:19.635Z,99007.00
2023-05-16T22:00:50.839Z,99013.00
2023-05-16T22:03:21.988Z,99007.00
2023-05-16T22:05:53.007Z,99017.00
2023-05-16T22:08:24.819Z,99014.00
2023-05-16T22:10:56.134Z,99018.00
2023-05-16T22:13:27.195Z,99016.00
2023-05-16T22:16:04.359Z,99010.00
2023-05-16T22:18:36.558Z,99018.00
2023-05-16T22:21:07.707Z,99014.00
2023-05-16T22:23:38.660Z,99022.00
2023-05-16T22:26:09.776Z,99025.00
2023-05-16T22:28:40.776Z,99024.00
2023-05-16T22:31:11.864Z,99028.00
2023-05-16T22:33:42.929Z,99032.00
2023-05-16T22:36:14.039Z,99030.00
2023-05-16T22:38:44.964Z,99029.00
2023-05-16T22:41:16.471Z,99021.00
2023-05-16T22:43:47.377Z,99030.00
2023-05-16T22:46:18.413Z,99023.00
2023-05-16T22:48:49.513Z,99031.00
2023-05-16T22:51:20.605Z,99035.00
2023-05-16T22:53:51.538Z,99027.00
2023-05-16T22:56:22.423Z,99027.00
2023-05-16T22:58:53.343Z,99041.00
2023-05-16T23:01:24.351Z,99032.00
2023-05-16T23:03:55.364Z,99035.00
2023-05-16T23:06:26.416Z,99041.00
2023-05-16T23:08:57.363Z,99042.00
2023-05-16T23:11:28.368Z,99051.00
2023-05-16T23:13:59.401Z,99052.00
2023-05-16T23:16:30.438Z,99050.00
2023-05-16T23:19:01.508Z,99048.00
2023-05-16T23:21:32.628Z,99054.00
2023-05-16T23:24:03.805Z,99053.00
2023-05-16T23:26:34.756Z,99064.00
2023-05-16T23:29:06.291Z,99061.00
2023-05-16T23:31:37.282Z,99071.00
2023-05-16T23:34:08.329Z,99064.00
2023-05-16T23:36:39.448Z,99072.00
2023-05-16T23:39:10.438Z,99083.00
2023-05-16T23:41:41.429Z,99075.00
2023-05-16T23:44:12.369Z,99094.00
2023-05-16T23:46:43.345Z,99080.00
2023-05-16T23:49:14.304Z,99080.00
2023-05-16T23:54:23.695Z,99092.00
2023-05-16T23:56:54.684Z,99090.00
2023-05-16T23:59:25.752Z,99087.00
